createdAt,value
2022-11-18T00:01:26.813Z,1.20
2022-11-18T00:03:55.275Z,1.00
2022-11-18T00:06:26.313Z,1.02
2022-11-18T00:08:56.043Z,1.40
2022-11-18T00:11:44.474Z,0.80
2022-11-18T00:14:21.003Z,1.23
2022-11-18T00:16:53.454Z,1.05
2022-11-18T00:19:23.247Z,1.27
2022-11-18T00:21:51.884Z,1.10
2022-11-18T00:24:20.810Z,1.00
2022-11-18T00:26:49.540Z,1.08
2022-11-18T00:29:18.510Z,1.00
2022-11-18T00:31:47.342Z,1.10
2022-11-18T00:34:19.099Z,1.10
2022-11-18T00:36:48.785Z,1.10
2022-11-18T00:39:19.518Z,1.02
2022-11-18T00:42:06.337Z,1.02
2022-11-18T00:44:35.226Z,1.00
2022-11-18T00:47:04.123Z,1.10
2022-11-18T00:49:33.860Z,1.10
2022-11-18T00:52:02.265Z,1.10
2022-11-18T00:54:30.701Z,1.13
2022-11-18T00:56:59.195Z,1.17
2022-11-18T00:59:27.620Z,1.10
2022-11-18T01:01:56.004Z,1.20
2022-11-18T01:04:24.613Z,1.20
2022-11-18T01:06:54.351Z,1.10
2022-11-18T01:09:22.824Z,0.95
2022-11-18T01:12:08.874Z,1.13
2022-11-18T01:14:37.201Z,1.10
2022-11-18T01:17:05.533Z,1.15
2022-11-18T01:19:33.966Z,1.10
2022-11-18T01:22:04.021Z,1.20
2022-11-18T01:24:33.227Z,1.20
2022-11-18T01:27:01.742Z,1.15
2022-11-18T01:29:30.464Z,1.10
2022-11-18T01:34:47.189Z,1.00
2022-11-18T01:37:17.134Z,1.20
2022-11-18T01:39:45.459Z,1.00
2022-11-18T01:42:16.713Z,1.10
2022-11-18T01:45:02.135Z,1.00
2022-11-18T01:47:34.112Z,1.00
2022-11-18T01:50:03.487Z,1.25
2022-11-18T01:52:34.823Z,1.05
2022-11-18T01:55:08.874Z,1.10
2022-11-18T01:57:37.639Z,1.10
2022-11-18T02:00:07.931Z,1.10
2022-11-18T02:02:38.669Z,1.10
2022-11-18T02:05:09.732Z,0.80
2022-11-18T02:07:43.588Z,1.05
2022-11-18T02:10:20.658Z,1.13
2022-11-18T02:12:50.192Z,1.10
2022-11-18T02:15:21.785Z,1.08
2022-11-18T02:17:59.386Z,1.15
2022-11-18T02:20:37.347Z,1.08
2022-11-18T02:23:40.361Z,1.08
2022-11-18T02:26:53.107Z,1.00
2022-11-18T02:29:27.303Z,0.90
2022-11-18T02:32:01.275Z,1.00
2022-11-18T02:34:43.556Z,1.00
2022-11-18T02:37:18.983Z,1.00
2022-11-18T02:39:54.500Z,0.90
2022-11-18T02:42:25.807Z,0.90
2022-11-18T02:45:01.359Z,0.93
2022-11-18T02:47:30.970Z,0.95
2022-11-18T02:50:02.951Z,0.90
2022-11-18T02:52:33.142Z,0.98
2022-11-18T02:55:03.527Z,0.90
2022-11-18T02:57:34.678Z,1.10
2022-11-18T03:00:05.841Z,0.90
2022-11-18T03:02:42.694Z,1.10
2022-11-18T03:05:18.363Z,0.98
2022-11-18T03:07:51.591Z,0.90
2022-11-18T03:10:22.704Z,0.98
2022-11-18T03:13:02.270Z,1.15
2022-11-18T03:15:38.646Z,0.88
2022-11-18T03:18:17.428Z,0.90
2022-11-18T03:20:51.370Z,1.00
2022-11-18T03:23:27.008Z,0.90
2022-11-18T03:26:05.955Z,1.00
2022-11-18T03:28:40.053Z,0.80
2022-11-18T03:31:15.783Z,1.08
2022-11-18T03:33:48.505Z,1.00
2022-11-18T03:36:20.151Z,0.90
2022-11-18T03:38:52.395Z,1.02
2022-11-18T03:41:23.575Z,1.00
2022-11-18T03:43:57.645Z,0.90
2022-11-18T03:46:32.132Z,1.00
2022-11-18T03:49:01.173Z,1.00
2022-11-18T03:51:34.589Z,1.08
2022-11-18T03:54:08.456Z,1.17
2022-11-18T03:56:41.850Z,0.93
2022-11-18T03:59:14.829Z,1.00
2022-11-18T04:01:49.694Z,1.23
2022-11-18T04:06:50.240Z,1.27
2022-11-18T04:09:22.217Z,1.08
2022-11-18T04:12:05.798Z,1.13
2022-11-18T04:14:36.141Z,1.10
2022-11-18T04:17:10.378Z,1.10
2022-11-18T04:19:38.857Z,1.10
2022-11-18T04:22:08.411Z,1.10
2022-11-18T04:24:37.015Z,1.13
2022-11-18T04:27:06.322Z,1.38
2022-11-18T04:29:35.426Z,1.27
2022-11-18T04:32:05.201Z,1.33
2022-11-18T04:34:34.868Z,1.30
2022-11-18T04:37:03.324Z,1.02
2022-11-18T04:39:31.781Z,1.10
2022-11-18T04:42:00.154Z,1.02
2022-11-18T04:44:29.894Z,1.23
2022-11-18T04:47:00.048Z,1.02
2022-11-18T04:49:29.069Z,1.33
2022-11-18T04:51:59.036Z,1.05
2022-11-18T04:54:28.367Z,1.10
2022-11-18T04:56:57.734Z,1.15
2022-11-18T04:59:27.534Z,1.13
2022-11-18T05:01:56.264Z,1.10
2022-11-18T05:04:26.273Z,1.27
2022-11-18T05:06:54.954Z,1.13
2022-11-18T05:09:30.245Z,1.40
2022-11-18T05:12:17.586Z,1.35
2022-11-18T05:14:50.112Z,1.10
2022-11-18T05:17:20.150Z,1.05
2022-11-18T05:19:48.591Z,1.20
2022-11-18T05:22:17.355Z,1.20
2022-11-18T05:24:47.179Z,1.50
2022-11-18T05:27:16.443Z,1.30
2022-11-18T05:29:44.792Z,1.20
2022-11-18T05:32:13.152Z,1.23
2022-11-18T05:34:42.489Z,1.40
2022-11-18T05:37:11.180Z,1.20
2022-11-18T05:39:39.520Z,1.60
2022-11-18T05:42:41.392Z,1.20
2022-11-18T05:45:10.342Z,1.52
2022-11-18T05:47:59.370Z,1.38
2022-11-18T05:50:27.741Z,1.52
2022-11-18T05:52:56.102Z,1.35
2022-11-18T05:55:28.485Z,1.60
2022-11-18T05:57:58.190Z,1.35
2022-11-18T06:00:26.503Z,1.30
2022-11-18T06:02:56.542Z,1.40
2022-11-18T06:05:27.282Z,1.17
2022-11-18T06:07:57.843Z,1.50
2022-11-18T06:10:30.201Z,1.48
2022-11-18T06:13:05.428Z,1.58
2022-11-18T06:15:37.589Z,1.30
2022-11-18T06:18:09.769Z,1.40
2022-11-18T06:20:40.091Z,1.40
2022-11-18T06:23:08.443Z,1.50
2022-11-18T06:25:39.549Z,1.30
2022-11-18T06:28:13.329Z,1.50
2022-11-18T06:30:41.726Z,1.30
2022-11-18T06:33:10.096Z,1.40
2022-11-18T06:35:38.403Z,1.35
2022-11-18T06:38:06.721Z,1.55
2022-11-18T06:40:35.191Z,1.45
2022-11-18T06:43:24.851Z,1.17
2022-11-18T06:46:12.632Z,1.35
2022-11-18T06:48:40.955Z,1.38
2022-11-18T06:51:09.598Z,1.30
2022-11-18T06:53:38.242Z,1.23
2022-11-18T06:56:08.039Z,1.42
2022-11-18T06:58:36.922Z,1.42
2022-11-18T07:01:12.461Z,1.50
2022-11-18T07:03:41.130Z,1.30
2022-11-18T07:06:10.537Z,1.30
2022-11-18T07:08:40.171Z,1.38
2022-11-18T07:11:11.019Z,1.42
2022-11-18T07:13:43.587Z,1.80
2022-11-18T07:16:15.361Z,1.77
2022-11-18T07:18:45.488Z,1.90
2022-11-18T07:21:15.984Z,1.73
2022-11-18T07:23:44.363Z,1.83
2022-11-18T07:26:13.116Z,1.70
2022-11-18T07:28:41.643Z,1.77
2022-11-18T07:31:11.570Z,1.85
2022-11-18T07:33:42.773Z,2.05
2022-11-18T07:36:13.077Z,1.67
2022-11-18T07:38:41.657Z,2.13
2022-11-18T07:41:13.176Z,2.03
2022-11-18T07:43:42.374Z,2.40
2022-11-18T07:46:12.820Z,2.30
2022-11-18T07:48:45.078Z,2.15
2022-11-18T07:51:14.132Z,3.55
2022-11-18T07:53:42.566Z,2.45
2022-11-18T07:56:12.277Z,2.03
2022-11-18T07:58:41.552Z,2.05
2022-11-18T08:01:10.982Z,2.00
2022-11-18T08:03:40.321Z,2.00
2022-11-18T08:06:12.035Z,1.77
2022-11-18T08:08:40.527Z,1.67
2022-11-18T08:11:10.734Z,1.73
2022-11-18T08:13:39.158Z,1.50
2022-11-18T08:16:14.368Z,1.45
2022-11-18T08:18:42.772Z,1.60
2022-11-18T08:21:13.434Z,1.85
2022-11-18T08:23:42.843Z,1.63
2022-11-18T08:26:13.233Z,1.60
2022-11-18T08:28:42.552Z,1.67
2022-11-18T08:31:12.287Z,1.75
2022-11-18T08:33:41.500Z,1.67
2022-11-18T08:36:14.117Z,1.50
2022-11-18T08:38:42.558Z,1.60
2022-11-18T08:41:13.685Z,1.50
2022-11-18T08:43:42.548Z,1.70
2022-11-18T08:46:11.065Z,1.65
2022-11-18T08:48:39.516Z,1.73
2022-11-18T08:51:12.273Z,1.80
2022-11-18T08:53:40.924Z,1.60
2022-11-18T08:56:15.707Z,1.95
2022-11-18T08:58:44.398Z,1.90
2022-11-18T09:01:13.437Z,1.73
2022-11-18T09:03:42.215Z,1.73
2022-11-18T09:06:15.555Z,1.90
2022-11-18T09:08:44.330Z,1.58
2022-11-18T09:11:15.729Z,2.05
2022-11-18T09:14:14.410Z,1.80
2022-11-18T09:16:34.659Z,1.73
2022-11-18T09:19:18.517Z,1.85
2022-11-18T09:21:53.101Z,2.00
2022-11-18T09:24:21.578Z,1.90
2022-11-18T09:26:50.240Z,1.60
2022-11-18T09:29:18.715Z,1.65
2022-11-18T09:31:47.182Z,1.60
2022-11-18T09:34:16.113Z,1.80
2022-11-18T09:36:44.963Z,1.77
2022-11-18T09:39:14.794Z,1.70
2022-11-18T09:41:48.002Z,2.22
2022-11-18T09:44:34.576Z,2.03
2022-11-18T09:47:15.606Z,2.70
2022-11-18T09:49:45.798Z,1.80
2022-11-18T09:52:20.906Z,1.75
2022-11-18T09:54:51.730Z,1.55
2022-11-18T09:57:22.257Z,1.80
2022-11-18T09:59:50.878Z,1.70
2022-11-18T10:02:30.209Z,1.70
2022-11-18T10:05:08.763Z,1.33
2022-11-18T10:07:44.066Z,2.08
2022-11-18T10:10:20.628Z,2.00
2022-11-18T10:12:54.200Z,2.00
2022-11-18T10:15:30.146Z,1.95
2022-11-18T10:18:07.609Z,1.70
2022-11-18T10:20:51.055Z,1.50
2022-11-18T10:23:23.916Z,1.48
2022-11-18T10:25:55.227Z,1.63
2022-11-18T10:28:26.222Z,1.45
2022-11-18T10:30:54.598Z,1.58
2022-11-18T10:33:29.023Z,1.92
2022-11-18T10:36:20.810Z,1.70
2022-11-18T10:38:50.329Z,1.90
2022-11-18T10:41:22.572Z,1.60
2022-11-18T10:43:52.525Z,1.65
2022-11-18T10:46:27.167Z,1.63
2022-11-18T10:51:43.245Z,1.40
2022-11-18T10:54:16.740Z,1.50
2022-11-18T10:56:51.119Z,1.70
2022-11-18T10:59:29.689Z,1.77
2022-11-18T11:02:04.019Z,1.70
2022-11-18T11:04:37.603Z,1.73
2022-11-18T11:07:17.400Z,1.42
2022-11-18T11:09:46.355Z,1.70
2022-11-18T11:12:19.053Z,1.75
2022-11-18T11:14:53.337Z,1.50
2022-11-18T11:17:27.226Z,1.50
2022-11-18T11:20:04.389Z,1.75
2022-11-18T11:22:33.030Z,1.90
2022-11-18T11:25:01.403Z,1.40
2022-11-18T11:28:20.345Z,1.40
2022-11-18T11:30:46.787Z,1.70
2022-11-18T11:33:32.020Z,1.40
2022-11-18T11:36:17.030Z,1.58
2022-11-18T11:41:32.186Z,1.45
2022-11-18T11:44:18.386Z,1.40
2022-11-18T11:47:10.108Z,1.85
2022-11-18T11:49:50.382Z,1.55
2022-11-18T11:52:27.832Z,1.52
2022-11-18T11:55:07.316Z,1.50
2022-11-18T11:57:50.200Z,1.55
2022-11-18T12:00:21.243Z,1.60
2022-11-18T12:03:07.033Z,1.77
2022-11-18T12:05:39.321Z,1.50
2022-11-18T12:08:13.962Z,1.63
2022-11-18T12:10:49.716Z,1.48
2022-11-18T12:13:37.530Z,1.40
2022-11-18T12:16:22.256Z,1.48
2022-11-18T12:18:57.711Z,1.20
2022-11-18T12:22:00.360Z,1.13
2022-11-18T12:24:36.416Z,1.40
2022-11-18T12:27:36.144Z,1.40
2022-11-18T12:30:05.514Z,1.50
2022-11-18T12:32:42.391Z,1.60
2022-11-18T12:35:28.087Z,1.60
2022-11-18T12:38:04.038Z,1.50
2022-11-18T12:40:38.088Z,1.70
2022-11-18T12:43:25.505Z,1.45
2022-11-18T12:45:56.826Z,1.10
2022-11-18T12:48:35.264Z,1.50
2022-11-18T12:51:12.514Z,1.50
2022-11-18T12:53:43.077Z,1.40
2022-11-18T12:56:22.025Z,1.40
2022-11-18T12:58:52.257Z,1.63
2022-11-18T13:01:23.409Z,1.33
2022-11-18T13:03:54.128Z,1.45
2022-11-18T13:06:27.659Z,1.40
2022-11-18T13:08:59.247Z,1.20
2022-11-18T13:11:45.849Z,1.60
2022-11-18T13:14:35.363Z,1.45
2022-11-18T13:17:33.084Z,1.50
2022-11-18T13:20:02.740Z,1.40
2022-11-18T13:22:57.187Z,1.40
2022-11-18T13:25:26.808Z,1.23
2022-11-18T13:28:03.840Z,1.40
2022-11-18T13:30:36.164Z,1.40
2022-11-18T13:33:04.621Z,1.40
2022-11-18T13:35:34.356Z,1.60
2022-11-18T13:38:03.389Z,1.80
2022-11-18T13:40:39.157Z,2.00
2022-11-18T13:43:11.628Z,2.00
2022-11-18T13:45:41.493Z,1.90
2022-11-18T13:48:14.009Z,2.20
2022-11-18T13:50:51.309Z,1.80
2022-11-18T13:53:30.418Z,1.73
2022-11-18T13:56:02.289Z,2.05
2022-11-18T13:58:55.694Z,1.75
2022-11-18T14:01:25.651Z,1.95
2022-11-18T14:03:58.612Z,1.85
2022-11-18T14:06:31.153Z,1.73
2022-11-18T14:09:08.155Z,2.53
2022-11-18T14:11:38.550Z,2.20
2022-11-18T14:14:07.668Z,1.95
2022-11-18T14:16:38.854Z,1.98
2022-11-18T14:19:07.727Z,1.70
2022-11-18T14:21:38.803Z,1.90
2022-11-18T14:24:07.643Z,2.10
2022-11-18T14:26:38.637Z,1.88
2022-11-18T14:29:21.029Z,1.80
2022-11-18T14:32:05.871Z,1.85
2022-11-18T14:34:34.366Z,1.90
2022-11-18T14:37:10.681Z,1.98
2022-11-18T14:39:39.757Z,2.05
2022-11-18T14:42:12.609Z,1.88
2022-11-18T14:44:40.994Z,2.13
2022-11-18T14:47:18.920Z,2.20
2022-11-18T14:49:47.303Z,2.38
2022-11-18T14:52:17.072Z,2.42
2022-11-18T14:54:45.493Z,2.25
2022-11-18T14:57:16.571Z,2.67
2022-11-18T14:59:45.165Z,2.20
2022-11-18T15:02:16.159Z,2.17
2022-11-18T15:04:44.961Z,2.22
2022-11-18T15:07:21.541Z,2.47
2022-11-18T15:09:52.730Z,2.13
2022-11-18T15:12:21.097Z,2.20
2022-11-18T15:14:49.415Z,2.10
2022-11-18T15:17:20.477Z,2.17
2022-11-18T15:19:49.015Z,2.00
2022-11-18T15:22:17.487Z,2.13
2022-11-18T15:24:45.825Z,2.33
2022-11-18T15:27:15.554Z,2.38
2022-11-18T15:29:43.849Z,1.90
2022-11-18T15:32:12.185Z,2.20
2022-11-18T15:34:40.511Z,2.17
2022-11-18T15:37:12.854Z,2.30
2022-11-18T15:39:41.297Z,2.10
2022-11-18T15:42:09.706Z,2.00
2022-11-18T15:44:39.390Z,1.98
2022-11-18T15:47:07.777Z,1.77
2022-11-18T15:49:36.144Z,2.20
2022-11-18T15:52:04.664Z,2.05
2022-11-18T15:54:32.988Z,2.00
2022-11-18T15:57:01.643Z,1.95
2022-11-18T15:59:30.026Z,1.90
2022-11-18T16:01:59.892Z,1.80
2022-11-18T16:04:31.090Z,1.80
2022-11-18T16:07:01.104Z,1.98
2022-11-18T16:09:51.077Z,1.90
2022-11-18T16:12:36.969Z,2.13
2022-11-18T16:15:34.646Z,2.05
2022-11-18T16:18:05.183Z,1.90
2022-11-18T16:20:33.600Z,2.00
2022-11-18T16:23:01.946Z,1.80
2022-11-18T16:25:30.281Z,2.10
2022-11-18T16:28:05.422Z,2.10
2022-11-18T16:30:53.087Z,1.90
2022-11-18T16:33:22.707Z,1.88
2022-11-18T16:35:51.063Z,1.95
2022-11-18T16:38:19.379Z,2.05
2022-11-18T16:40:47.731Z,2.38
2022-11-18T16:43:16.004Z,2.05
2022-11-18T16:45:51.522Z,2.40
2022-11-18T16:48:20.030Z,2.47
2022-11-18T16:51:00.947Z,2.42
2022-11-18T16:53:29.202Z,2.92
2022-11-18T16:56:03.450Z,2.35
2022-11-18T16:58:31.700Z,2.13
2022-11-18T17:01:18.614Z,2.15
2022-11-18T17:03:51.354Z,1.83
2022-11-18T17:06:21.413Z,2.33
2022-11-18T17:08:50.246Z,2.30
2022-11-18T17:11:19.025Z,2.15
2022-11-18T17:13:47.419Z,1.85
2022-11-18T17:16:17.661Z,2.10
2022-11-18T17:18:46.819Z,2.15
2022-11-18T17:21:17.917Z,2.17
2022-11-18T17:23:48.320Z,2.50
2022-11-18T17:26:19.251Z,2.60
2022-11-18T17:28:48.012Z,2.80
2022-11-18T17:31:17.702Z,2.42
2022-11-18T17:33:46.894Z,2.20
2022-11-18T17:36:17.029Z,2.50
2022-11-18T17:38:48.259Z,2.20
2022-11-18T17:41:32.821Z,2.65
2022-11-18T17:44:02.062Z,2.72
2022-11-18T17:46:36.369Z,3.10
2022-11-18T17:49:07.993Z,3.13
2022-11-18T17:51:36.309Z,2.95
2022-11-18T17:54:06.608Z,3.33
2022-11-18T17:56:35.029Z,3.50
2022-11-18T17:59:03.658Z,3.28
2022-11-18T18:01:32.091Z,3.03
2022-11-18T18:04:00.519Z,3.10
2022-11-18T18:06:28.825Z,2.92
2022-11-18T18:08:57.457Z,3.30
2022-11-18T18:11:27.835Z,3.80
2022-11-18T18:14:13.971Z,3.85
2022-11-18T18:16:44.881Z,3.50
2022-11-18T18:19:15.376Z,3.80
2022-11-18T18:21:43.813Z,3.17
2022-11-18T18:24:14.709Z,2.85
2022-11-18T18:26:44.489Z,2.50
2022-11-18T18:29:13.614Z,2.67
2022-11-18T18:31:42.131Z,3.38
2022-11-18T18:34:10.444Z,2.83
2022-11-18T18:36:39.119Z,3.10
2022-11-18T18:39:09.614Z,2.90
2022-11-18T18:41:38.485Z,4.38
2022-11-18T18:44:10.423Z,4.75
2022-11-18T18:46:41.124Z,3.92
2022-11-18T18:49:11.661Z,3.50
2022-11-18T18:51:41.771Z,3.72
2022-11-18T18:54:12.252Z,3.80
2022-11-18T18:56:40.675Z,3.42
2022-11-18T18:59:10.786Z,3.55
2022-11-18T19:01:39.856Z,3.80
2022-11-18T19:04:09.330Z,3.20
2022-11-18T19:09:27.725Z,3.03
2022-11-18T19:12:10.529Z,3.17
2022-11-18T19:14:40.769Z,2.90
2022-11-18T19:17:11.787Z,2.90
2022-11-18T19:19:59.458Z,3.03
2022-11-18T19:22:30.385Z,3.20
2022-11-18T19:24:59.618Z,3.50
2022-11-18T19:27:28.313Z,3.17
2022-11-18T19:29:58.348Z,3.17
2022-11-18T19:32:26.740Z,3.00
2022-11-18T19:34:55.224Z,3.55
2022-11-18T19:37:23.613Z,3.33
2022-11-18T19:39:52.402Z,3.00
2022-11-18T19:42:20.929Z,3.38
2022-11-18T19:44:49.327Z,3.65
2022-11-18T19:47:19.112Z,3.83
2022-11-18T19:49:47.526Z,3.40
2022-11-18T19:52:15.936Z,3.67
2022-11-18T19:54:44.244Z,3.38
2022-11-18T19:57:12.643Z,3.67
2022-11-18T19:59:41.123Z,3.67
2022-11-18T20:02:11.484Z,3.53
2022-11-18T20:05:01.203Z,3.38
2022-11-18T20:07:29.685Z,3.40
2022-11-18T20:09:58.069Z,3.80
2022-11-18T20:12:26.412Z,3.83
2022-11-18T20:14:54.760Z,3.75
2022-11-18T20:17:23.960Z,3.47
2022-11-18T20:19:53.623Z,3.53
2022-11-18T20:22:22.217Z,3.38
2022-11-18T20:24:50.518Z,3.63
2022-11-18T20:27:18.855Z,3.72
2022-11-18T20:29:47.257Z,3.80
2022-11-18T20:32:15.591Z,3.58
2022-11-18T20:34:44.130Z,3.72
2022-11-18T20:37:14.982Z,3.53
2022-11-18T20:39:43.312Z,3.55
2022-11-18T20:42:29.048Z,3.60
2022-11-18T20:44:57.350Z,4.03
2022-11-18T20:47:25.725Z,4.05
2022-11-18T20:49:54.048Z,5.00
2022-11-18T20:52:24.124Z,4.80
2022-11-18T20:54:52.476Z,4.65
2022-11-18T20:57:20.795Z,4.50
2022-11-18T20:59:49.183Z,4.35
2022-11-18T21:02:17.686Z,4.60
2022-11-18T21:04:46.046Z,4.43
2022-11-18T21:07:14.435Z,5.22
2022-11-18T21:09:45.197Z,5.90
2022-11-18T21:12:13.584Z,5.10
2022-11-18T21:14:40.905Z,4.55
2022-11-18T21:17:09.287Z,4.82
2022-11-18T21:19:37.683Z,4.75
2022-11-18T21:22:05.072Z,4.47
2022-11-18T21:24:35.282Z,4.57
2022-11-18T21:27:05.833Z,4.82
2022-11-18T21:29:34.739Z,5.00
2022-11-18T21:32:03.039Z,4.25
2022-11-18T21:34:31.627Z,6.18
2022-11-18T21:37:00.034Z,5.88
2022-11-18T21:39:28.378Z,6.03
2022-11-18T21:41:57.651Z,7.60
2022-11-18T21:44:28.793Z,5.10
2022-11-18T21:46:57.852Z,5.40
2022-11-18T21:49:26.292Z,7.75
2022-11-18T21:51:54.631Z,5.97
2022-11-18T21:54:23.109Z,7.10
2022-11-18T21:56:52.260Z,4.40
2022-11-18T21:59:22.332Z,5.65
2022-11-18T22:01:52.172Z,4.30
2022-11-18T22:04:34.443Z,4.00
2022-11-18T22:07:02.972Z,4.00
2022-11-18T22:09:36.112Z,3.90
2022-11-18T22:12:07.712Z,4.25
2022-11-18T22:14:36.346Z,4.18
2022-11-18T22:17:06.296Z,10.73
2022-11-18T22:19:35.284Z,8.57
2022-11-18T22:22:03.645Z,12.10
2022-11-18T22:24:32.039Z,8.77
2022-11-18T22:27:00.472Z,7.07
2022-11-18T22:29:28.873Z,6.40
2022-11-18T22:31:57.303Z,8.88
2022-11-18T22:34:28.468Z,7.05
2022-11-18T22:36:56.830Z,7.25
2022-11-18T22:39:25.225Z,7.45
2022-11-18T22:42:11.157Z,7.10
2022-11-18T22:44:39.569Z,6.45
2022-11-18T22:47:07.877Z,9.13
2022-11-18T22:49:37.644Z,5.65
2022-11-18T22:52:06.441Z,5.25
2022-11-18T22:54:39.587Z,4.93
2022-11-18T22:57:08.687Z,3.43
2022-11-18T22:59:37.011Z,4.80
2022-11-18T23:02:05.466Z,4.07
2022-11-18T23:04:33.847Z,4.38
2022-11-18T23:07:03.763Z,3.90
2022-11-18T23:09:32.144Z,4.47
2022-11-18T23:12:17.724Z,4.03
2022-11-18T23:14:46.120Z,4.22
2022-11-18T23:17:15.871Z,4.57
2022-11-18T23:19:44.507Z,3.80
2022-11-18T23:22:14.712Z,3.60
2022-11-18T23:24:43.046Z,3.47
2022-11-18T23:27:11.349Z,3.53
2022-11-18T23:29:39.693Z,3.35
2022-11-18T23:32:08.018Z,3.78
2022-11-18T23:34:36.309Z,4.10
2022-11-18T23:37:04.773Z,4.72
2022-11-18T23:39:34.708Z,4.50
2022-11-18T23:42:03.071Z,4.18
2022-11-18T23:44:46.289Z,3.78
2022-11-18T23:47:14.752Z,3.35
2022-11-18T23:49:43.091Z,3.50
2022-11-18T23:52:11.557Z,3.28
2022-11-18T23:54:41.326Z,3.20
2022-11-18T23:57:09.735Z,3.50
2022-11-18T23:59:38.092Z,3.55
